sensor_id;sensor_type;location;lat;lon;timestamp;pressure;altitude;pressure_sealevel;temperature;humidity
13974;BME280;7060;43.770;4.008;2024-02-15T00:00:18;101838.00;;;5.09;69.90
13974;BME280;7060;43.770;4.008;2024-02-15T00:02:46;101839.88;;;5.07;69.81
13974;BME280;7060;43.770;4.008;2024-02-15T00:05:14;101843.69;;;5.02;69.71
13974;BME280;7060;43.770;4.008;2024-02-15T00:07:42;101853.25;;;5.04;69.27
13974;BME280;7060;43.770;4.008;2024-02-15T00:10:11;101857.63;;;5.05;70.10
13974;BME280;7060;43.770;4.008;2024-02-15T00:12:40;101851.53;;;5.03;70.09
13974;BME280;7060;43.770;4.008;2024-02-15T00:15:08;101854.50;;;4.97;69.38
13974;BME280;7060;43.770;4.008;2024-02-15T00:17:37;101849.03;;;5.00;69.79
13974;BME280;7060;43.770;4.008;2024-02-15T00:20:06;101847.19;;;5.02;69.43
13974;BME280;7060;43.770;4.008;2024-02-15T00:22:36;101854.50;;;4.97;69.85
13974;BME280;7060;43.770;4.008;2024-02-15T00:25:05;101856.19;;;4.98;69.61
13974;BME280;7060;43.770;4.008;2024-02-15T00:27:35;101843.03;;;4.97;69.50
13974;BME280;7060;43.770;4.008;2024-02-15T00:30:06;101840.56;;;4.94;70.00
13974;BME280;7060;43.770;4.008;2024-02-15T00:32:34;101841.75;;;4.88;70.48
13974;BME280;7060;43.770;4.008;2024-02-15T00:35:04;101827.94;;;4.82;69.95
13974;BME280;7060;43.770;4.008;2024-02-15T00:37:35;101830.81;;;4.77;69.75
13974;BME280;7060;43.770;4.008;2024-02-15T00:40:04;101826.69;;;4.71;69.79
13974;BME280;7060;43.770;4.008;2024-02-15T00:42:32;101825.91;;;4.69;70.37
13974;BME280;7060;43.770;4.008;2024-02-15T00:45:00;101823.09;;;4.72;70.47
13974;BME280;7060;43.770;4.008;2024-02-15T00:47:30;101820.16;;;4.79;70.37
13974;BME280;7060;43.770;4.008;2024-02-15T00:49:58;101817.59;;;4.77;69.67
13974;BME280;7060;43.770;4.008;2024-02-15T00:52:27;101810.59;;;4.76;69.85
13974;BME280;7060;43.770;4.008;2024-02-15T00:54:56;101809.88;;;4.72;70.09
13974;BME280;7060;43.770;4.008;2024-02-15T00:57:23;101815.16;;;4.72;70.63
13974;BME280;7060;43.770;4.008;2024-02-15T00:59:52;101815.88;;;4.76;70.14
13974;BME280;7060;43.770;4.008;2024-02-15T01:02:20;101816.72;;;4.76;70.59
13974;BME280;7060;43.770;4.008;2024-02-15T01:04:51;101816.88;;;4.73;70.05
13974;BME280;7060;43.770;4.008;2024-02-15T01:07:20;101824.31;;;4.84;70.63
13974;BME280;7060;43.770;4.008;2024-02-15T01:09:48;101822.13;;;4.92;70.24
13974;BME280;7060;43.770;4.008;2024-02-15T01:12:16;101827.88;;;5.00;70.10
13974;BME280;7060;43.770;4.008;2024-02-15T01:14:44;101828.59;;;5.04;70.04
13974;BME280;7060;43.770;4.008;2024-02-15T01:17:12;101830.38;;;5.03;70.22
13974;BME280;7060;43.770;4.008;2024-02-15T01:19:40;101825.78;;;5.07;70.40
13974;BME280;7060;43.770;4.008;2024-02-15T01:22:10;101826.41;;;5.12;70.84
13974;BME280;7060;43.770;4.008;2024-02-15T01:24:38;101818.47;;;5.12;71.68
13974;BME280;7060;43.770;4.008;2024-02-15T01:27:06;101814.81;;;5.15;71.50
13974;BME280;7060;43.770;4.008;2024-02-15T01:29:35;101820.13;;;5.15;72.03
13974;BME280;7060;43.770;4.008;2024-02-15T01:32:04;101815.13;;;5.08;72.08
13974;BME280;7060;43.770;4.008;2024-02-15T01:34:32;101814.34;;;5.06;71.75
13974;BME280;7060;43.770;4.008;2024-02-15T01:37:01;101810.91;;;5.04;71.92
13974;BME280;7060;43.770;4.008;2024-02-15T01:39:30;101801.13;;;5.06;72.23
13974;BME280;7060;43.770;4.008;2024-02-15T01:41:58;101804.38;;;5.12;72.81
13974;BME280;7060;43.770;4.008;2024-02-15T01:44:26;101807.41;;;5.21;71.88
13974;BME280;7060;43.770;4.008;2024-02-15T01:46:54;101794.72;;;5.28;71.84
13974;BME280;7060;43.770;4.008;2024-02-15T01:49:22;101797.19;;;5.31;72.43
13974;BME280;7060;43.770;4.008;2024-02-15T01:51:52;101796.13;;;5.35;72.11
13974;BME280;7060;43.770;4.008;2024-02-15T01:54:20;101803.75;;;5.41;71.72
13974;BME280;7060;43.770;4.008;2024-02-15T01:56:50;101796.22;;;5.49;71.83
13974;BME280;7060;43.770;4.008;2024-02-15T01:59:19;101802.91;;;5.56;72.38
13974;BME280;7060;43.770;4.008;2024-02-15T02:01:48;101796.44;;;5.62;71.76
13974;BME280;7060;43.770;4.008;2024-02-15T02:04:16;101793.56;;;5.66;71.75
13974;BME280;7060;43.770;4.008;2024-02-15T02:06:44;101799.63;;;5.68;72.52
13974;BME280;7060;43.770;4.008;2024-02-15T02:09:12;101790.75;;;5.69;72.18
13974;BME280;7060;43.770;4.008;2024-02-15T02:11:42;101801.75;;;5.77;72.47
13974;BME280;7060;43.770;4.008;2024-02-15T02:14:14;101796.13;;;5.84;72.11
13974;BME280;7060;43.770;4.008;2024-02-15T02:16:43;101808.25;;;5.89;72.63
13974;BME280;7060;43.770;4.008;2024-02-15T02:19:13;101797.41;;;5.94;72.82
13974;BME280;7060;43.770;4.008;2024-02-15T02:21:41;101790.13;;;5.97;72.88
13974;BME280;7060;43.770;4.008;2024-02-15T02:24:12;101794.22;;;6.03;72.80
13974;BME280;7060;43.770;4.008;2024-02-15T02:26:42;101787.91;;;6.05;72.68
13974;BME280;7060;43.770;4.008;2024-02-15T02:29:11;101778.00;;;6.09;72.88
13974;BME280;7060;43.770;4.008;2024-02-15T02:31:40;101775.16;;;6.12;72.77
13974;BME280;7060;43.770;4.008;2024-02-15T02:34:09;101775.69;;;6.19;72.98
13974;BME280;7060;43.770;4.008;2024-02-15T02:36:38;101771.16;;;6.21;72.58
13974;BME280;7060;43.770;4.008;2024-02-15T02:39:07;101774.56;;;6.23;72.68
13974;BME280;7060;43.770;4.008;2024-02-15T02:41:35;101772.78;;;6.23;73.10
13974;BME280;7060;43.770;4.008;2024-02-15T02:44:05;101772.78;;;6.23;72.98
13974;BME280;7060;43.770;4.008;2024-02-15T02:46:33;101778.78;;;6.27;72.84
13974;BME280;7060;43.770;4.008;2024-02-15T02:49:01;101769.03;;;6.27;73.03
13974;BME280;7060;43.770;4.008;2024-02-15T02:51:30;101763.72;;;6.27;73.23
13974;BME280;7060;43.770;4.008;2024-02-15T02:53:57;101762.00;;;6.26;73.54
13974;BME280;7060;43.770;4.008;2024-02-15T02:56:26;101760.88;;;6.30;73.59
13974;BME280;7060;43.770;4.008;2024-02-15T02:58:54;101770.44;;;6.33;73.12
13974;BME280;7060;43.770;4.008;2024-02-15T03:01:23;101769.59;;;6.32;73.69
13974;BME280;7060;43.770;4.008;2024-02-15T03:03:53;101773.19;;;6.31;73.74
13974;BME280;7060;43.770;4.008;2024-02-15T03:06:22;101773.00;;;6.34;73.58
13974;BME280;7060;43.770;4.008;2024-02-15T03:08:51;101773.00;;;6.34;73.64
13974;BME280;7060;43.770;4.008;2024-02-15T03:11:21;101762.88;;;6.27;73.64
13974;BME280;7060;43.770;4.008;2024-02-15T03:13:49;101755.84;;;6.26;73.54
13974;BME280;7060;43.770;4.008;2024-02-15T03:16:17;101753.19;;;6.26;73.92
13974;BME280;7060;43.770;4.008;2024-02-15T03:18:50;101759.34;;;6.26;73.48
13974;BME280;7060;43.770;4.008;2024-02-15T03:21:19;101752.34;;;6.25;73.81
13974;BME280;7060;43.770;4.008;2024-02-15T03:23:47;101744.66;;;6.21;73.42
13974;BME280;7060;43.770;4.008;2024-02-15T03:26:15;101764.66;;;6.26;73.97
13974;BME280;7060;43.770;4.008;2024-02-15T03:28:43;101765.69;;;6.24;73.50
13974;BME280;7060;43.770;4.008;2024-02-15T03:31:11;101757.66;;;6.25;73.81
13974;BME280;7060;43.770;4.008;2024-02-15T03:33:39;101758.50;;;6.26;73.57
13974;BME280;7060;43.770;4.008;2024-02-15T03:36:09;101763.13;;;6.22;73.52
13974;BME280;7060;43.770;4.008;2024-02-15T03:38:42;101761.31;;;6.23;73.84
13974;BME280;7060;43.770;4.008;2024-02-15T03:41:11;101770.75;;;6.28;73.87
13974;BME280;7060;43.770;4.008;2024-02-15T03:43:39;101701.06;;;5.95;73.28
13974;BME280;7060;43.770;4.008;2024-02-15T03:46:08;101767.88;;;6.31;73.44
13974;BME280;7060;43.770;4.008;2024-02-15T03:48:39;101765.44;;;6.28;73.22
13974;BME280;7060;43.770;4.008;2024-02-15T03:51:09;101767.09;;;6.29;73.45
13974;BME280;7060;43.770;4.008;2024-02-15T03:53:37;101768.94;;;6.29;73.21
13974;BME280;7060;43.770;4.008;2024-02-15T03:56:05;101757.28;;;6.31;73.42
13974;BME280;7060;43.770;4.008;2024-02-15T03:58:35;101761.72;;;6.31;73.02
13974;BME280;7060;43.770;4.008;2024-02-15T04:01:04;101761.94;;;6.28;73.58
13974;BME280;7060;43.770;4.008;2024-02-15T04:03:33;101770.75;;;6.28;73.75
13974;BME280;7060;43.770;4.008;2024-02-15T04:06:01;101769.41;;;6.35;73.55
13974;BME280;7060;43.770;4.008;2024-02-15T04:08:32;101765.84;;;6.36;73.54
13974;BME280;7060;43.770;4.008;2024-02-15T04:11:02;101757.03;;;6.36;73.71
13974;BME280;7060;43.770;4.008;2024-02-15T04:13:32;101758.81;;;6.35;73.85
13974;BME280;7060;43.770;4.008;2024-02-15T04:16:00;101763.25;;;6.35;73.66
13974;BME280;7060;43.770;4.008;2024-02-15T04:18:29;101761.56;;;6.34;73.83
13974;BME280;7060;43.770;4.008;2024-02-15T04:20:59;101765.06;;;6.34;73.74
13974;BME280;7060;43.770;4.008;2024-02-15T04:23:27;101769.25;;;6.38;74.05
13974;BME280;7060;43.770;4.008;2024-02-15T04:25:57;101762.84;;;6.42;73.76
13974;BME280;7060;43.770;4.008;2024-02-15T04:28:26;101768.91;;;6.44;73.94
13974;BME280;7060;43.770;4.008;2024-02-15T04:30:54;101770.53;;;6.47;74.09
13974;BME280;7060;43.770;4.008;2024-02-15T04:33:22;101766.09;;;6.48;74.21
13974;BME280;7060;43.770;4.008;2024-02-15T04:35:50;101763.25;;;6.51;74.22
13974;BME280;7060;43.770;4.008;2024-02-15T04:38:18;101766.59;;;6.54;74.21
13974;BME280;7060;43.770;4.008;2024-02-15T04:40:47;101765.53;;;6.57;74.22
13974;BME280;7060;43.770;4.008;2024-02-15T04:43:16;101765.34;;;6.60;74.31
13974;BME280;7060;43.770;4.008;2024-02-15T04:45:45;101759.88;;;6.63;74.72
13974;BME280;7060;43.770;4.008;2024-02-15T04:48:13;101758.75;;;6.67;74.53
13974;BME280;7060;43.770;4.008;2024-02-15T04:50:41;101757.72;;;6.69;74.88
13974;BME280;7060;43.770;4.008;2024-02-15T04:53:10;101753.19;;;6.71;75.19
13974;BME280;7060;43.770;4.008;2024-02-15T04:55:38;101742.50;;;6.73;75.20
13974;BME280;7060;43.770;4.008;2024-02-15T04:58:06;101738.53;;;6.80;74.87
13974;BME280;7060;43.770;4.008;2024-02-15T05:00:38;101748.84;;;6.85;75.33
13974;BME280;7060;43.770;4.008;2024-02-15T05:03:07;101750.28;;;6.90;75.70
13974;BME280;7060;43.770;4.008;2024-02-15T05:05:35;101744.63;;;6.96;75.54
13974;BME280;7060;43.770;4.008;2024-02-15T05:08:06;101743.59;;;6.99;75.32
13974;BME280;7060;43.770;4.008;2024-02-15T05:10:36;101735.38;;;7.03;75.89
13974;BME280;7060;43.770;4.008;2024-02-15T05:13:04;101735.09;;;7.08;75.84
13974;BME280;7060;43.770;4.008;2024-02-15T05:15:32;101738.38;;;7.11;76.03
13974;BME280;7060;43.770;4.008;2024-02-15T05:18:01;101732.72;;;7.18;76.39
13974;BME280;7060;43.770;4.008;2024-02-15T05:20:29;101737.47;;;7.27;76.26
13974;BME280;7060;43.770;4.008;2024-02-15T05:22:58;101737.97;;;7.33;77.06
13974;BME280;7060;43.770;4.008;2024-02-15T05:25:26;101739.19;;;7.42;76.89
13974;BME280;7060;43.770;4.008;2024-02-15T05:27:54;101729.03;;;7.48;76.83
13974;BME280;7060;43.770;4.008;2024-02-15T05:30:25;101724.28;;;7.54;77.00
13974;BME280;7060;43.770;4.008;2024-02-15T05:32:53;101738.81;;;7.62;77.35
13974;BME280;7060;43.770;4.008;2024-02-15T05:35:23;101739.25;;;7.69;77.34
13974;BME280;7060;43.770;4.008;2024-02-15T05:37:53;101745.06;;;7.75;77.10
13974;BME280;7060;43.770;4.008;2024-02-15T05:40:22;101742.78;;;7.84;77.64
13974;BME280;7060;43.770;4.008;2024-02-15T05:42:55;101743.03;;;7.93;77.68
13974;BME280;7060;43.770;4.008;2024-02-15T05:45:31;101734.75;;;7.98;77.70
13974;BME280;7060;43.770;4.008;2024-02-15T05:48:04;101730.94;;;8.02;77.68
13974;BME280;7060;43.770;4.008;2024-02-15T05:50:36;101731.63;;;8.05;78.39
13974;BME280;7060;43.770;4.008;2024-02-15T05:53:04;101727.16;;;8.06;78.62
13974;BME280;7060;43.770;4.008;2024-02-15T05:55:34;101730.38;;;8.11;78.51
13974;BME280;7060;43.770;4.008;2024-02-15T05:58:04;101733.69;;;8.14;78.84
13974;BME280;7060;43.770;4.008;2024-02-15T06:00:32;101724.56;;;8.19;78.98
13974;BME280;7060;43.770;4.008;2024-02-15T06:03:01;101726.91;;;8.23;78.83
13974;BME280;7060;43.770;4.008;2024-02-15T06:05:30;101724.03;;;8.26;78.54
13974;BME280;7060;43.770;4.008;2024-02-15T06:08:00;101724.69;;;8.30;78.99
13974;BME280;7060;43.770;4.008;2024-02-15T06:10:29;101721.09;;;8.31;79.23
13974;BME280;7060;43.770;4.008;2024-02-15T06:12:57;101720.91;;;8.34;78.97
13974;BME280;7060;43.770;4.008;2024-02-15T06:15:26;101727.00;;;8.36;79.25
13974;BME280;7060;43.770;4.008;2024-02-15T06:17:54;101719.66;;;8.39;79.57
13974;BME280;7060;43.770;4.008;2024-02-15T06:20:24;101723.94;;;8.42;78.83
13974;BME280;7060;43.770;4.008;2024-02-15T06:22:55;101725.44;;;8.46;78.68
13974;BME280;7060;43.770;4.008;2024-02-15T06:25:24;101724.16;;;8.52;79.15
13974;BME280;7060;43.770;4.008;2024-02-15T06:27:52;101724.91;;;8.54;79.23
13974;BME280;7060;43.770;4.008;2024-02-15T06:30:26;101729.06;;;8.58;79.11
13974;BME280;7060;43.770;4.008;2024-02-15T06:33:11;101719.47;;;8.55;79.03
13974;BME280;7060;43.770;4.008;2024-02-15T06:35:57;101718.63;;;8.55;78.83
13974;BME280;7060;43.770;4.008;2024-02-15T06:38:43;101724.16;;;8.52;79.33
13974;BME280;7060;43.770;4.008;2024-02-15T06:41:30;101721.41;;;8.53;79.06
13974;BME280;7060;43.770;4.008;2024-02-15T06:43:58;101713.22;;;8.56;78.59
13974;BME280;7060;43.770;4.008;2024-02-15T06:46:26;101711.19;;;8.60;79.34
13974;BME280;7060;43.770;4.008;2024-02-15T06:48:56;101709.28;;;8.62;78.76
13974;BME280;7060;43.770;4.008;2024-02-15T06:51:25;101706.63;;;8.62;78.62
13974;BME280;7060;43.770;4.008;2024-02-15T06:53:53;101709.09;;;8.65;79.23
13974;BME280;7060;43.770;4.008;2024-02-15T06:56:23;101700.06;;;8.67;79.16
13974;BME280;7060;43.770;4.008;2024-02-15T06:58:52;101696.97;;;8.73;78.53
13974;BME280;7060;43.770;4.008;2024-02-15T07:01:23;101685.13;;;8.77;78.90
13974;BME280;7060;43.770;4.008;2024-02-15T07:03:52;101690.56;;;8.76;78.86
13974;BME280;7060;43.770;4.008;2024-02-15T07:06:24;101690.47;;;8.77;79.18
13974;BME280;7060;43.770;4.008;2024-02-15T07:08:54;101690.34;;;8.79;78.69
13974;BME280;7060;43.770;4.008;2024-02-15T07:11:24;101706.03;;;8.83;78.86
13974;BME280;7060;43.770;4.008;2024-02-15T07:13:53;101703.06;;;8.88;78.47
13974;BME280;7060;43.770;4.008;2024-02-15T07:16:21;101715.31;;;8.91;78.72
13974;BME280;7060;43.770;4.008;2024-02-15T07:18:50;101727.66;;;8.92;79.25
13974;BME280;7060;43.770;4.008;2024-02-15T07:21:19;101722.97;;;8.95;78.34
13974;BME280;7060;43.770;4.008;2024-02-15T07:23:52;101727.25;;;8.98;78.54
13974;BME280;7060;43.770;4.008;2024-02-15T07:26:21;101726.94;;;9.02;77.71
13974;BME280;7060;43.770;4.008;2024-02-15T07:28:53;101719.66;;;9.04;78.52
13974;BME280;7060;43.770;4.008;2024-02-15T07:31:21;101725.75;;;9.06;78.07
13974;BME280;7060;43.770;4.008;2024-02-15T07:33:50;101725.44;;;9.11;77.89
13974;BME280;7060;43.770;4.008;2024-02-15T07:36:19;101730.56;;;9.14;78.27
13974;BME280;7060;43.770;4.008;2024-02-15T07:38:48;101728.53;;;9.18;77.56
13974;BME280;7060;43.770;4.008;2024-02-15T07:41:17;101732.59;;;9.23;78.03
13974;BME280;7060;43.770;4.008;2024-02-15T07:43:46;101727.81;;;9.28;78.13
13974;BME280;7060;43.770;4.008;2024-02-15T07:46:16;101723.09;;;9.32;77.82
13974;BME280;7060;43.770;4.008;2024-02-15T07:48:44;101726.50;;;9.34;77.54
13974;BME280;7060;43.770;4.008;2024-02-15T07:51:14;101745.69;;;9.39;77.62
13974;BME280;7060;43.770;4.008;2024-02-15T07:53:43;101737.69;;;9.39;77.88
13974;BME280;7060;43.770;4.008;2024-02-15T07:56:12;101730.03;;;9.47;77.96
13974;BME280;7060;43.770;4.008;2024-02-15T07:58:40;101728.84;;;9.51;77.84
13974;BME280;7060;43.770;4.008;2024-02-15T08:01:09;101717.88;;;9.56;77.99
13974;BME280;7060;43.770;4.008;2024-02-15T08:03:38;101706.84;;;9.60;78.00
13974;BME280;7060;43.770;4.008;2024-02-15T08:06:11;101717.63;;;9.59;77.54
13974;BME280;7060;43.770;4.008;2024-02-15T08:08:40;101719.22;;;9.61;77.50
13974;BME280;7060;43.770;4.008;2024-02-15T08:11:08;101718.03;;;9.65;77.92
13974;BME280;7060;43.770;4.008;2024-02-15T08:13:43;101733.59;;;9.71;77.92
13974;BME280;7060;43.770;4.008;2024-02-15T08:16:12;101730.84;;;9.73;77.61
13974;BME280;7060;43.770;4.008;2024-02-15T08:18:44;101736.59;;;9.79;77.28
13974;BME280;7060;43.770;4.008;2024-02-15T08:21:14;101731.78;;;9.84;77.78
13974;BME280;7060;43.770;4.008;2024-02-15T08:23:42;101733.66;;;9.95;77.26
13974;BME280;7060;43.770;4.008;2024-02-15T08:26:10;101739.41;;;10.02;77.52
13974;BME280;7060;43.770;4.008;2024-02-15T08:28:38;101721.69;;;10.01;77.04
13974;BME280;7060;43.770;4.008;2024-02-15T08:31:06;101744.56;;;10.16;76.93
13974;BME280;7060;43.770;4.008;2024-02-15T08:33:36;101744.56;;;10.16;76.93
13974;BME280;7060;43.770;4.008;2024-02-15T08:36:07;101736.97;;;10.35;76.83
13974;BME280;7060;43.770;4.008;2024-02-15T08:38:37;101742.78;;;10.40;76.81
13974;BME280;7060;43.770;4.008;2024-02-15T08:41:05;101730.19;;;10.42;76.17
13974;BME280;7060;43.770;4.008;2024-02-15T08:43:34;101751.44;;;10.44;75.97
13974;BME280;7060;43.770;4.008;2024-02-15T08:46:05;101747.69;;;10.46;76.02
13974;BME280;7060;43.770;4.008;2024-02-15T08:48:35;101731.78;;;10.45;75.60
13974;BME280;7060;43.770;4.008;2024-02-15T08:51:04;101734.75;;;10.53;75.24
13974;BME280;7060;43.770;4.008;2024-02-15T08:53:34;101734.41;;;10.58;75.14
13974;BME280;7060;43.770;4.008;2024-02-15T08:56:03;101726.06;;;10.62;74.99
13974;BME280;7060;43.770;4.008;2024-02-15T08:58:31;101722.03;;;10.68;74.74
13974;BME280;7060;43.770;4.008;2024-02-15T09:01:00;101728.50;;;10.76;74.46
13974;BME280;7060;43.770;4.008;2024-02-15T09:03:29;101717.16;;;10.85;74.60
13974;BME280;7060;43.770;4.008;2024-02-15T09:05:58;101717.16;;;10.97;74.30
13974;BME280;7060;43.770;4.008;2024-02-15T09:08:30;101712.69;;;11.08;73.87
13974;BME280;7060;43.770;4.008;2024-02-15T09:10:59;101713.81;;;11.17;73.55
13974;BME280;7060;43.770;4.008;2024-02-15T09:13:29;101711.13;;;11.28;73.68
13974;BME280;7060;43.770;4.008;2024-02-15T09:15:59;101709.44;;;11.38;74.05
13974;BME280;7060;43.770;4.008;2024-02-15T09:18:27;101707.88;;;11.47;73.39
13974;BME280;7060;43.770;4.008;2024-02-15T09:20:55;101720.63;;;11.54;72.54
13974;BME280;7060;43.770;4.008;2024-02-15T09:23:23;101684.06;;;11.44;72.20
13974;BME280;7060;43.770;4.008;2024-02-15T09:25:51;101709.56;;;11.70;72.36
13974;BME280;7060;43.770;4.008;2024-02-15T09:28:20;101709.81;;;11.78;71.66
13974;BME280;7060;43.770;4.008;2024-02-15T09:30:50;101715.66;;;11.83;71.33
13974;BME280;7060;43.770;4.008;2024-02-15T09:33:19;101719.53;;;11.91;71.01
13974;BME280;7060;43.770;4.008;2024-02-15T09:35:48;101717.34;;;11.96;70.62
13974;BME280;7060;43.770;4.008;2024-02-15T09:38:16;101708.84;;;12.02;70.38
13974;BME280;7060;43.770;4.008;2024-02-15T09:40:48;101712.56;;;12.10;70.20
13974;BME280;7060;43.770;4.008;2024-02-15T09:43:17;101712.56;;;12.10;70.20
13974;BME280;7060;43.770;4.008;2024-02-15T09:45:48;101714.72;;;12.28;69.86
13974;BME280;7060;43.770;4.008;2024-02-15T09:48:17;101710.94;;;12.30;68.86
13974;BME280;7060;43.770;4.008;2024-02-15T09:50:52;101722.34;;;12.32;68.24
13974;BME280;7060;43.770;4.008;2024-02-15T09:53:22;101713.34;;;12.33;68.15
13974;BME280;7060;43.770;4.008;2024-02-15T09:55:53;101705.78;;;12.38;68.10
13974;BME280;7060;43.770;4.008;2024-02-15T09:58:21;101705.28;;;12.44;68.34
13974;BME280;7060;43.770;4.008;2024-02-15T10:00:52;101710.97;;;12.51;67.96
13974;BME280;7060;43.770;4.008;2024-02-15T10:03:21;101708.50;;;12.59;67.80
13974;BME280;7060;43.770;4.008;2024-02-15T10:05:50;101705.16;;;12.67;67.62
13974;BME280;7060;43.770;4.008;2024-02-15T10:08:18;101705.63;;;12.72;67.06
13974;BME280;7060;43.770;4.008;2024-02-15T10:11:05;101701.47;;;12.79;67.17
13974;BME280;7060;43.770;4.008;2024-02-15T10:13:33;101703.63;;;12.85;65.96
13974;BME280;7060;43.770;4.008;2024-02-15T10:16:14;101698.97;;;12.87;66.11
13974;BME280;7060;43.770;4.008;2024-02-15T10:18:42;101702.50;;;12.87;65.92
13974;BME280;7060;43.770;4.008;2024-02-15T10:21:23;101703.69;;;12.95;66.23
13974;BME280;7060;43.770;4.008;2024-02-15T10:24:02;101704.28;;;12.98;66.33
13974;BME280;7060;43.770;4.008;2024-02-15T10:26:35;101699.63;;;13.00;66.47
13974;BME280;7060;43.770;4.008;2024-02-15T10:29:10;101698.41;;;13.04;65.66
13974;BME280;7060;43.770;4.008;2024-02-15T10:31:52;101689.38;;;13.05;65.88
13974;BME280;7060;43.770;4.008;2024-02-15T10:34:21;101690.94;;;13.08;66.57
13974;BME280;7060;43.770;4.008;2024-02-15T10:36:50;101693.06;;;13.14;66.06
13974;BME280;7060;43.770;4.008;2024-02-15T10:39:18;101692.84;;;13.17;66.26
13974;BME280;7060;43.770;4.008;2024-02-15T10:41:49;101696.81;;;13.23;66.23
13974;BME280;7060;43.770;4.008;2024-02-15T10:44:18;101690.09;;;13.28;66.68
13974;BME280;7060;43.770;4.008;2024-02-15T10:46:49;101687.59;;;13.36;66.27
13974;BME280;7060;43.770;4.008;2024-02-15T10:49:19;101669.50;;;13.29;66.22
13974;BME280;7060;43.770;4.008;2024-02-15T10:51:51;101694.41;;;13.50;66.38
13974;BME280;7060;43.770;4.008;2024-02-15T10:54:39;101692.19;;;13.55;66.09
13974;BME280;7060;43.770;4.008;2024-02-15T10:57:09;101695.56;;;13.57;66.23
13974;BME280;7060;43.770;4.008;2024-02-15T10:59:38;101697.00;;;13.61;66.00
13974;BME280;7060;43.770;4.008;2024-02-15T11:02:26;101694.31;;;13.61;65.59
13974;BME280;7060;43.770;4.008;2024-02-15T11:05:02;101695.19;;;13.62;65.62
13974;BME280;7060;43.770;4.008;2024-02-15T11:07:31;101690.78;;;13.61;65.87
13974;BME280;7060;43.770;4.008;2024-02-15T11:10:00;101683.47;;;13.63;65.83
13974;BME280;7060;43.770;4.008;2024-02-15T11:12:29;101696.16;;;13.61;65.58
13974;BME280;7060;43.770;4.008;2024-02-15T11:14:57;101678.38;;;13.60;65.71
13974;BME280;7060;43.770;4.008;2024-02-15T11:17:46;101681.75;;;13.62;65.49
13974;BME280;7060;43.770;4.008;2024-02-15T11:20:45;101681.63;;;13.63;66.04
13974;BME280;7060;43.770;4.008;2024-02-15T11:23:24;101676.41;;;13.62;65.59
13974;BME280;7060;43.770;4.008;2024-02-15T11:26:03;101667.78;;;13.68;66.17
13974;BME280;7060;43.770;4.008;2024-02-15T11:28:43;101671.03;;;13.71;66.09
13974;BME280;7060;43.770;4.008;2024-02-15T11:31:54;101667.25;;;13.74;66.02
13974;BME280;7060;43.770;4.008;2024-02-15T11:34:45;101662.28;;;13.69;66.35
13974;BME280;7060;43.770;4.008;2024-02-15T11:37:54;101659.47;;;13.71;67.03
13974;BME280;7060;43.770;4.008;2024-02-15T11:40:25;101658.34;;;13.73;66.99
13974;BME280;7060;43.770;4.008;2024-02-15T11:42:55;101657.81;;;13.79;66.97
13974;BME280;7060;43.770;4.008;2024-02-15T11:45:25;101655.56;;;13.84;66.36
13974;BME280;7060;43.770;4.008;2024-02-15T11:47:59;101647.06;;;13.79;66.88
13974;BME280;7060;43.770;4.008;2024-02-15T11:50:34;101656.94;;;13.79;66.82
13974;BME280;7060;43.770;4.008;2024-02-15T11:53:03;101646.34;;;13.77;67.05
13974;BME280;7060;43.770;4.008;2024-02-15T11:55:37;101648.75;;;13.80;67.21
13974;BME280;7060;43.770;4.008;2024-02-15T11:58:07;101641.69;;;13.79;67.03
13974;BME280;7060;43.770;4.008;2024-02-15T12:00:45;101649.16;;;13.76;67.35
13974;BME280;7060;43.770;4.008;2024-02-15T12:03:30;101638.31;;;13.77;67.20
13974;BME280;7060;43.770;4.008;2024-02-15T12:06:31;101629.41;;;13.77;67.34
13974;BME280;7060;43.770;4.008;2024-02-15T12:09:18;101616.84;;;13.77;67.95
13974;BME280;7060;43.770;4.008;2024-02-15T12:12:05;101619.09;;;13.82;67.99
13974;BME280;7060;43.770;4.008;2024-02-15T12:14:58;101626.16;;;13.83;67.37
13974;BME280;7060;43.770;4.008;2024-02-15T12:17:44;101620.66;;;13.84;67.79
13974;BME280;7060;43.770;4.008;2024-02-15T12:20:30;101611.50;;;13.87;68.12
13974;BME280;7060;43.770;4.008;2024-02-15T12:23:00;101609.09;;;13.94;67.88
13974;BME280;7060;43.770;4.008;2024-02-15T12:25:28;101595.38;;;13.97;67.62
13974;BME280;7060;43.770;4.008;2024-02-15T12:28:00;101601.59;;;13.97;68.16
13974;BME280;7060;43.770;4.008;2024-02-15T12:30:33;101586.34;;;14.07;68.12
13974;BME280;7060;43.770;4.008;2024-02-15T12:33:11;101563.19;;;14.06;68.41
13974;BME280;7060;43.770;4.008;2024-02-15T12:35:40;101575.59;;;14.27;68.01
13974;BME280;7060;43.770;4.008;2024-02-15T12:38:12;101578.84;;;14.40;68.19
13974;BME280;7060;43.770;4.008;2024-02-15T12:40:44;101572.94;;;14.46;68.10
13974;BME280;7060;43.770;4.008;2024-02-15T12:43:15;101569.50;;;14.53;67.34
13974;BME280;7060;43.770;4.008;2024-02-15T12:45:43;101563.28;;;14.53;67.63
13974;BME280;7060;43.770;4.008;2024-02-15T12:48:11;101560.44;;;14.54;67.38
13974;BME280;7060;43.770;4.008;2024-02-15T12:50:42;101560.16;;;14.57;67.47
13974;BME280;7060;43.770;4.008;2024-02-15T12:53:11;101557.47;;;14.57;67.36
13974;BME280;7060;43.770;4.008;2024-02-15T12:55:40;101555.94;;;14.55;67.63
13974;BME280;7060;43.770;4.008;2024-02-15T12:58:12;101553.94;;;14.57;67.60
13974;BME280;7060;43.770;4.008;2024-02-15T13:00:42;101556.06;;;14.53;67.47
13974;BME280;7060;43.770;4.008;2024-02-15T13:03:11;101553.94;;;14.57;68.02
13974;BME280;7060;43.770;4.008;2024-02-15T13:05:42;101555.94;;;14.55;67.69
13974;BME280;7060;43.770;4.008;2024-02-15T13:08:12;101549.28;;;14.59;67.80
13974;BME280;7060;43.770;4.008;2024-02-15T13:10:41;101543.19;;;14.57;68.01
13974;BME280;7060;43.770;4.008;2024-02-15T13:13:10;101547.72;;;14.56;68.17
13974;BME280;7060;43.770;4.008;2024-02-15T13:15:41;101547.03;;;14.54;68.29
13974;BME280;7060;43.770;4.008;2024-02-15T13:18:10;101542.06;;;14.50;68.24
13974;BME280;7060;43.770;4.008;2024-02-15T13:20:41;101539.38;;;14.50;68.54
13974;BME280;7060;43.770;4.008;2024-02-15T13:23:11;101538.25;;;14.52;68.42
13974;BME280;7060;43.770;4.008;2024-02-15T13:25:46;101528.81;;;14.48;69.01